Time;durP1;ratioP1;P1;durP2;ratioP2;P2;SDS_P1;SDS_P2;PMS_P1;PMS_P2;Temp;Humidity;BMP_temperature;BMP_pressure;BME280_temperature;BME280_humidity;BME280_pressure;Samples;Min_cycle;Max_cycle;Signal;HPM_P1;HPM_P2
2023/04/28 00:00:02;;;;;;;52.20;30.40;;;;;;;3.59;54.87;99601.69;105061;1266;109915;-74
2023/04/28 00:02:49;;;;;;;58.60;28.90;;;;;;;3.59;55.08;99599.60;105084;1266;104373;-72
2023/04/28 00:05:18;;;;;;;56.60;28.10;;;;;;;3.59;54.98;99599.25;105284;1259;107660;-72
2023/04/28 00:07:46;;;;;;;59.60;28.10;;;;;;;3.55;55.21;99600.41;105285;1264;96616;-72
2023/04/28 00:10:15;;;;;;;56.10;28.10;;;;;;;3.48;55.23;99601.54;105317;1256;97011;-71
2023/04/28 00:12:42;;;;;;;56.00;25.40;;;;;;;3.42;55.20;99602.63;105135;1260;109360;-71
2023/04/28 00:15:12;;;;;;;50.90;26.60;;;;;;;3.38;55.15;99601.70;105373;1257;100830;-71
2023/04/28 00:17:40;;;;;;;49.70;25.80;;;;;;;3.35;55.47;99602.35;105348;1266;109035;-72
2023/04/28 00:20:08;;;;;;;49.40;25.30;;;;;;;3.29;55.32;99602.23;105244;1266;96600;-73
2023/04/28 00:22:36;;;;;;;51.70;25.10;;;;;;;3.21;54.99;99601.58;105229;1257;97826;-71
2023/04/28 00:25:22;;;;;;;44.20;22.80;;;;;;;3.16;55.57;99602.29;105161;1265;109943;-71
2023/04/28 00:28:07;;;;;;;53.90;25.50;;;;;;;3.11;55.36;99601.73;105014;1257;102434;-72
2023/04/28 00:30:54;;;;;;;47.10;25.70;;;;;;;3.12;55.65;99601.52;105370;1259;107423;-74
2023/04/28 00:33:22;;;;;;;52.30;26.10;;;;;;;3.13;55.37;99602.20;105281;1257;96632;-72
2023/04/28 00:35:58;;;;;;;44.60;21.70;;;;;;;3.12;55.71;99600.31;105051;1260;97047;-72
2023/04/28 00:38:26;;;;;;;35.30;16.90;;;;;;;3.06;55.65;99598.59;105060;1259;108436;-73
2023/04/28 00:40:53;;;;;;;34.40;17.40;;;;;;;3.00;55.50;99600.71;105246;1267;100895;-72
2023/04/28 00:43:21;;;;;;;39.20;18.70;;;;;;;2.94;55.73;99604.74;105080;1267;107650;-72
2023/04/28 00:45:49;;;;;;;39.30;18.40;;;;;;;2.90;55.62;99605.22;105247;1265;98043;-72
2023/04/28 00:48:18;;;;;;;31.90;16.50;;;;;;;2.90;55.61;99607.19;105257;1256;97098;-73
2023/04/28 00:50:47;;;;;;;32.80;17.60;;;;;;;2.85;55.68;99606.28;105168;1257;110016;-72
2023/04/28 00:53:15;;;;;;;36.00;15.40;;;;;;;2.87;55.83;99609.00;105391;1257;100844;-83
2023/04/28 00:55:45;;;;;;;29.00;14.10;;;;;;;2.88;55.74;99609.69;105426;1257;107474;-74
2023/04/28 00:58:13;;;;;;;29.10;14.10;;;;;;;2.88;56.06;99610.02;105375;1264;97112;-72
2023/04/28 01:00:42;;;;;;;29.90;14.00;;;;;;;2.85;56.03;99610.67;105454;1257;97012;-74
2023/04/28 01:03:10;;;;;;;31.70;15.30;;;;;;;2.87;55.93;99609.90;105361;1257;110029;-75
2023/04/28 01:05:38;;;;;;;28.20;13.70;;;;;;;2.81;56.16;99609.02;105318;1264;100914;-72
2023/04/28 01:08:27;;;;;;;28.40;14.00;;;;;;;2.71;56.04;99609.86;105177;1264;110545;-73
2023/04/28 01:10:56;;;;;;;29.60;13.80;;;;;;;2.64;56.11;99610.09;105239;1255;96641;-71
2023/04/28 01:13:23;;;;;;;27.80;13.20;;;;;;;2.65;56.12;99608.84;105430;1254;97000;-73
2023/04/28 01:15:51;;;;;;;27.50;12.80;;;;;;;2.68;56.35;99610.48;105202;1264;109477;-73
2023/04/28 01:18:19;;;;;;;24.50;12.10;;;;;;;2.66;56.27;99607.40;105282;1254;101434;-72
2023/04/28 01:20:48;;;;;;;24.50;11.40;;;;;;;2.66;56.19;99610.02;105497;1264;107092;-73
2023/04/28 01:23:16;;;;;;;23.50;11.70;;;;;;;2.64;56.30;99609.75;105410;1265;96594;-76
2023/04/28 01:25:44;;;;;;;24.90;11.60;;;;;;;2.57;56.28;99614.68;105234;1257;96997;-72
2023/04/28 01:28:12;;;;;;;22.90;10.60;;;;;;;2.51;56.51;99614.88;105435;1255;109499;-72
2023/04/28 01:30:40;;;;;;;25.30;11.10;;;;;;;2.47;56.34;99615.70;105308;1254;100688;-72
2023/04/28 01:33:08;;;;;;;25.00;11.30;;;;;;;2.46;56.66;99613.11;105375;1254;106651;-73
2023/04/28 01:35:37;;;;;;;26.00;11.40;;;;;;;2.44;56.60;99616.14;105280;1264;96590;-74
2023/04/28 01:38:04;;;;;;;21.50;10.20;;;;;;;2.44;56.49;99614.03;105334;1255;97079;-73
2023/04/28 01:40:33;;;;;;;22.20;10.10;;;;;;;2.44;56.63;99612.98;105408;1253;109496;-72
2023/04/28 01:43:00;;;;;;;21.60;9.90;;;;;;;2.40;56.32;99612.75;105394;1253;100854;-72
2023/04/28 01:45:28;;;;;;;22.90;10.70;;;;;;;2.36;56.50;99614.44;105260;1257;107586;-73
2023/04/28 01:47:56;;;;;;;21.40;10.10;;;;;;;2.35;56.86;99614.98;105304;1266;97931;-73
2023/04/28 01:50:44;;;;;;;21.80;10.30;;;;;;;2.32;56.45;99613.69;105082;1253;97937;-72
2023/04/28 01:53:12;;;;;;;22.90;9.60;;;;;;;2.23;56.77;99613.43;105105;1254;109872;-72
2023/04/28 01:55:40;;;;;;;23.20;10.60;;;;;;;2.17;56.68;99609.77;105255;1258;101720;-72
2023/04/28 01:58:09;;;;;;;20.00;9.40;;;;;;;2.15;56.82;99611.56;105307;1255;107615;-75
2023/04/28 02:00:37;;;;;;;26.10;12.20;;;;;;;2.12;56.68;99613.59;105290;1256;96676;-71
2023/04/28 02:03:05;;;;;;;27.40;12.30;;;;;;;2.09;56.65;99610.66;105014;1257;98523;-73
2023/04/28 02:05:33;;;;;;;28.90;13.20;;;;;;;2.10;56.65;99610.66;105092;1256;109516;-71
2023/04/28 02:08:01;;;;;;;30.30;13.80;;;;;;;2.12;56.87;99609.71;105046;1266;100619;-72
2023/04/28 02:10:29;;;;;;;24.90;10.80;;;;;;;2.15;56.80;99610.35;105052;1267;107650;-71
2023/04/28 02:12:57;;;;;;;27.60;11.20;;;;;;;2.14;57.28;99614.55;105234;1266;96619;-72
2023/04/28 02:15:25;;;;;;;22.60;11.00;;;;;;;2.12;57.16;99609.38;105319;1255;96591;-72
2023/04/28 02:17:53;;;;;;;23.20;10.80;;;;;;;2.10;57.17;99620.10;105191;1257;109335;-72
2023/04/28 02:20:21;;;;;;;23.90;11.70;;;;;;;2.07;57.13;99619.83;105287;1257;100859;-71
2023/04/28 02:22:49;;;;;;;22.90;11.50;;;;;;;2.10;57.35;99621.86;105031;1270;106764;-72
2023/04/28 02:25:17;;;;;;;26.20;13.40;;;;;;;2.07;57.17;99625.79;105385;1257;96599;-73
2023/04/28 02:27:45;;;;;;;25.60;13.50;;;;;;;2.12;57.09;99624.95;105091;1258;97099;-77
2023/04/28 02:30:14;;;;;;;27.40;14.70;;;;;;;2.13;57.32;99630.50;105193;1254;109909;-72
2023/04/28 02:32:41;;;;;;;28.30;13.10;;;;;;;2.09;57.30;99629.76;105221;1258;100554;-72
2023/04/28 02:35:09;;;;;;;26.30;13.20;;;;;;;2.06;57.42;99632.45;105027;1271;106276;-73
2023/04/28 02:37:37;;;;;;;25.90;12.50;;;;;;;2.07;57.36;99633.29;105095;1258;97986;-72
2023/04/28 02:40:06;;;;;;;23.10;11.80;;;;;;;2.07;57.25;99630.50;105092;1260;96503;-72
2023/04/28 02:42:35;;;;;;;23.10;11.10;;;;;;;2.05;57.28;99632.13;105249;1257;109880;-71
2023/04/28 02:45:04;;;;;;;25.50;12.20;;;;;;;1.99;57.30;99630.41;105541;1254;101149;-71
2023/04/28 02:47:32;;;;;;;24.40;11.80;;;;;;;1.87;57.42;99626.88;105165;1264;108339;-72
2023/04/28 02:50:00;;;;;;;27.70;12.50;;;;;;;1.82;57.36;99627.88;105288;1261;96718;-71
2023/04/28 02:52:28;;;;;;;37.30;13.50;;;;;;;1.78;57.55;99625.55;105283;1257;97103;-72
2023/04/28 02:54:56;;;;;;;28.10;13.50;;;;;;;1.81;57.67;99628.08;105347;1257;109536;-72
2023/04/28 02:57:25;;;;;;;30.20;15.10;;;;;;;1.85;57.45;99634.45;105218;1257;101420;-72
2023/04/28 02:59:53;;;;;;;33.60;17.60;;;;;;;1.86;57.85;99633.02;105151;1266;107711;-72
2023/04/28 03:02:21;;;;;;;26.30;13.30;;;;;;;1.82;57.68;99635.59;105275;1257;96609;-72
2023/04/28 03:04:50;;;;;;;28.80;15.20;;;;;;;1.76;57.57;99638.00;105293;1257;97630;-73
2023/04/28 03:07:18;;;;;;;27.50;12.80;;;;;;;1.78;57.75;99635.52;105224;1253;109970;-72
2023/04/28 03:09:47;;;;;;;25.40;13.50;;;;;;;1.72;57.51;99640.75;105088;1254;101206;-72
2023/04/28 03:12:15;;;;;;;27.40;14.00;;;;;;;1.68;57.94;99642.95;105257;1267;107130;-82
2023/04/28 03:14:42;;;;;;;25.00;12.90;;;;;;;1.66;57.68;99643.17;105293;1266;97810;-72
2023/04/28 03:17:13;;;;;;;28.30;14.10;;;;;;;1.61;57.80;99644.55;105086;1257;96984;-72
2023/04/28 03:19:40;;;;;;;29.20;14.70;;;;;;;1.58;58.01;99649.69;105402;1256;110351;-73
2023/04/28 03:22:08;;;;;;;28.70;13.60;;;;;;;1.53;58.04;99648.92;105432;1255;100873;-73
2023/04/28 03:24:36;;;;;;;25.30;12.50;;;;;;;1.51;58.11;99649.34;105073;1257;108329;-72
2023/04/28 03:27:04;;;;;;;27.00;12.20;;;;;;;1.50;58.02;99651.45;105300;1256;97528;-71
2023/04/28 03:29:32;;;;;;;24.90;11.70;;;;;;;1.53;58.38;99654.71;105310;1254;97121;-71
2023/04/28 03:32:00;;;;;;;24.50;11.00;;;;;;;1.56;57.81;99653.05;105027;1257;110003;-72
2023/04/28 03:34:28;;;;;;;24.90;11.10;;;;;;;1.57;57.90;99654.44;105345;1254;100118;-72
2023/04/28 03:36:56;;;;;;;22.90;11.50;;;;;;;1.58;58.30;99654.77;105141;1257;108125;-72
2023/04/28 03:39:23;;;;;;;26.10;11.70;;;;;;;1.54;58.25;99654.86;105285;1257;97518;-72
2023/04/28 03:41:51;;;;;;;35.10;14.10;;;;;;;1.58;58.30;99660.02;105276;1252;97083;-72
2023/04/28 03:44:20;;;;;;;32.30;14.80;;;;;;;1.66;58.16;99663.45;106112;1254;109616;-74
2023/04/28 03:46:48;;;;;;;31.20;14.10;;;;;;;1.74;58.40;99663.06;108778;1254;100869;-76
2023/04/28 03:49:16;;;;;;;28.20;13.50;;;;;;;1.80;58.59;99663.44;108723;1254;107606;-74
2023/04/28 03:51:44;;;;;;;27.40;12.20;;;;;;;1.84;58.52;99661.24;108761;1253;94552;-72
2023/04/28 03:54:12;;;;;;;27.60;11.80;;;;;;;1.88;58.49;99662.70;108278;1253;94536;-73
2023/04/28 03:56:40;;;;;;;26.60;11.50;;;;;;;1.93;58.48;99661.86;108648;1254;109970;-72
2023/04/28 03:59:10;;;;;;;23.50;11.10;;;;;;;1.92;58.40;99663.11;107916;1253;99725;-72
2023/04/28 04:01:38;;;;;;;23.70;11.60;;;;;;;2.00;58.54;99665.52;105304;1269;107041;-73
2023/04/28 04:04:06;;;;;;;23.50;11.70;;;;;;;2.13;58.67;99664.79;105430;1266;97518;-72
2023/04/28 04:06:35;;;;;;;24.10;11.00;;;;;;;2.24;58.95;99662.40;105498;1257;97108;-72
2023/04/28 04:09:02;;;;;;;22.90;10.60;;;;;;;2.35;58.89;99664.52;105430;1254;109878;-72
2023/04/28 04:11:30;;;;;;;21.80;10.50;;;;;;;2.51;58.62;99665.63;105159;1266;100568;-72
2023/04/28 04:13:58;;;;;;;23.50;10.80;;;;;;;2.63;58.53;99665.96;105284;1257;106101;-72
2023/04/28 04:16:26;;;;;;;31.00;13.00;;;;;;;2.76;58.77;99665.92;105415;1257;96598;-73
2023/04/28 04:18:54;;;;;;;21.70;10.40;;;;;;;2.85;58.75;99669.15;105256;1257;97547;-71
2023/04/28 04:21:22;;;;;;;21.10;9.80;;;;;;;2.94;59.06;99664.67;105258;1254;109884;-72
2023/04/28 04:23:50;;;;;;;23.10;11.40;;;;;;;3.02;59.11;99671.10;105022;1259;100873;-73
2023/04/28 04:26:18;;;;;;;21.40;10.50;;;;;;;3.07;59.31;99667.57;105268;1257;107524;-72
2023/04/28 04:28:46;;;;;;;24.40;13.20;;;;;;;3.14;59.30;99669.30;105212;1257;97916;-72
2023/04/28 04:31:14;;;;;;;23.70;11.80;;;;;;;3.20;59.37;99666.13;105274;1257;97101;-72
2023/04/28 04:33:42;;;;;;;26.90;14.60;;;;;;;3.25;59.26;99667.70;105256;1257;110406;-73
2023/04/28 04:36:10;;;;;;;33.00;15.50;;;;;;;3.26;58.97;99668.04;105259;1257;100837;-74
2023/04/28 04:38:39;;;;;;;27.70;14.90;;;;;;;3.25;59.18;99670.88;105149;1254;107602;-72
2023/04/28 04:41:07;;;;;;;30.10;15.20;;;;;;;3.26;59.31;99669.98;105210;1254;97817;-71
2023/04/28 04:43:34;;;;;;;26.80;14.70;;;;;;;3.30;59.33;99672.63;105231;1254;97000;-77
2023/04/28 04:46:02;;;;;;;30.10;16.60;;;;;;;3.36;59.43;99673.85;105263;1253;109554;-73
2023/04/28 04:48:31;;;;;;;31.00;17.30;;;;;;;3.41;59.14;99671.23;105382;1254;100095;-80
2023/04/28 04:50:59;;;;;;;32.50;16.40;;;;;;;3.46;59.31;99672.64;105283;1257;107227;-72
2023/04/28 04:53:27;;;;;;;27.50;15.30;;;;;;;3.53;59.49;99672.40;105083;1254;97922;-73
2023/04/28 04:55:55;;;;;;;29.70;15.60;;;;;;;3.63;59.62;99672.23;105323;1256;96991;-72
2023/04/28 04:58:23;;;;;;;27.40;14.30;;;;;;;3.80;59.73;99674.64;105158;1256;109926;-71
2023/04/28 05:00:51;;;;;;;33.70;16.80;;;;;;;3.98;59.91;99679.27;105248;1253;101021;-72
2023/04/28 05:03:19;;;;;;;28.90;16.10;;;;;;;4.13;59.66;99678.54;105274;1254;107611;-72
2023/04/28 05:05:48;;;;;;;30.20;15.50;;;;;;;4.26;59.57;99681.42;105304;1254;96597;-73
2023/04/28 05:08:16;;;;;;;33.90;16.10;;;;;;;4.39;60.11;99682.72;105328;1257;97519;-74
2023/04/28 05:10:44;;;;;;;31.60;16.70;;;;;;;4.51;59.89;99682.26;106303;1254;109532;-74
2023/04/28 05:13:12;;;;;;;32.10;17.50;;;;;;;4.61;59.98;99684.14;105116;1267;101345;-72
2023/04/28 05:15:40;;;;;;;31.60;16.90;;;;;;;4.73;60.01;99678.61;105364;1257;107686;-71
2023/04/28 05:18:09;;;;;;;35.90;18.80;;;;;;;4.85;60.01;99678.67;105323;1256;96584;-73
2023/04/28 05:20:38;;;;;;;29.10;15.10;;;;;;;4.93;60.09;99676.77;105343;1256;97525;-72
2023/04/28 05:23:06;;;;;;;28.00;16.30;;;;;;;5.01;60.13;99677.19;105277;1268;109727;-75
2023/04/28 05:25:34;;;;;;;33.00;17.40;;;;;;;5.09;60.24;99674.56;105311;1256;100853;-73
2023/04/28 05:28:06;;;;;;;31.10;16.90;;;;;;;5.16;60.38;99674.82;104962;1257;106288;-72
2023/04/28 05:30:34;;;;;;;34.20;17.80;;;;;;;5.26;60.47;99675.48;105296;1253;97550;-80
2023/04/28 05:33:02;;;;;;;33.90;18.30;;;;;;;5.36;60.39;99676.98;105237;1257;97412;-71
2023/04/28 05:35:30;;;;;;;33.80;17.50;;;;;;;5.45;60.30;99677.32;105311;1253;109967;-75
2023/04/28 05:37:58;;;;;;;32.20;18.00;;;;;;;5.52;60.52;99677.73;105291;1258;100585;-73
2023/04/28 05:40:27;;;;;;;33.90;17.50;;;;;;;5.53;60.53;99684.19;105276;1270;107113;-77
2023/04/28 05:42:55;;;;;;;35.50;18.00;;;;;;;5.52;60.34;99686.89;105241;1257;97892;-72
2023/04/28 05:45:24;;;;;;;31.10;16.60;;;;;;;5.49;60.22;99687.01;105380;1254;97102;-72
2023/04/28 05:47:52;;;;;;;31.00;16.70;;;;;;;5.49;60.57;99681.20;105385;1254;109694;-72
2023/04/28 05:50:20;;;;;;;31.60;16.80;;;;;;;5.52;60.52;99687.05;105465;1253;100908;-72
2023/04/28 05:52:48;;;;;;;32.10;16.70;;;;;;;5.59;60.66;99687.11;105440;1256;107656;-72
2023/04/28 05:55:16;;;;;;;30.90;16.30;;;;;;;5.68;60.89;99686.23;105187;1256;96590;-74
2023/04/28 05:57:44;;;;;;;26.90;14.10;;;;;;;5.76;60.99;99683.95;105251;1253;97085;-72
2023/04/28 06:00:20;;;;;;;28.40;14.40;;;;;;;5.85;60.90;99688.48;105448;1253;109919;-73
2023/04/28 06:02:48;;;;;;;25.40;12.80;;;;;;;5.95;60.75;99689.63;105418;1256;100597;-73
2023/04/28 06:05:17;;;;;;;26.00;14.00;;;;;;;6.04;60.59;99694.23;105438;1270;105901;-72
2023/04/28 06:08:21;;;;;;;;;;;;;;;;;;;;;
2023/04/28 06:12:05;;;;;;;26.10;11.50;;;;;;;6.24;60.90;99690.35;104715;1261;98239;-72
2023/04/28 06:14:36;;;;;;;26.00;12.50;;;;;;;6.32;60.98;99691.05;104924;1261;109911;-73
2023/04/28 06:17:44;;;;;;;25.80;12.20;;;;;;;6.42;60.68;99693.62;104859;1262;100818;-78
2023/04/28 06:20:12;;;;;;;23.60;12.10;;;;;;;6.50;60.72;99688.99;104674;1257;107716;-73
2023/04/28 06:22:41;;;;;;;27.80;12.50;;;;;;;6.59;60.83;99688.27;104897;1262;96802;-73
2023/04/28 06:25:09;;;;;;;24.60;11.70;;;;;;;6.67;60.89;99686.29;104696;1262;97810;-71
2023/04/28 06:27:37;;;;;;;23.40;12.60;;;;;;;6.74;60.72;99685.60;104669;1263;110152;-71
2023/04/28 06:30:06;;;;;;;28.10;12.60;;;;;;;6.81;60.84;99680.34;104961;1257;99354;-73
2023/04/28 06:32:34;;;;;;;22.80;11.50;;;;;;;6.89;60.99;99683.85;104862;1263;108302;-73
2023/04/28 06:35:03;;;;;;;23.00;11.30;;;;;;;6.96;60.71;99682.98;104927;1262;97458;-72
2023/04/28 06:37:31;;;;;;;23.80;11.30;;;;;;;7.02;60.53;99681.67;104692;1262;98649;-73
2023/04/28 06:39:59;;;;;;;25.30;11.40;;;;;;;7.06;60.75;99683.95;104979;1258;109818;-73
2023/04/28 06:42:27;;;;;;;19.90;9.10;;;;;;;7.13;60.63;99685.34;104673;1264;98645;-73
2023/04/28 06:44:55;;;;;;;22.50;9.40;;;;;;;7.21;60.57;99686.56;105139;1264;107278;-77
2023/04/28 06:47:23;;;;;;;21.20;9.90;;;;;;;7.28;60.65;99691.31;105342;1270;96672;-72
2023/04/28 06:49:51;;;;;;;22.20;10.10;;;;;;;7.37;60.73;99689.31;105335;1254;97086;-72
2023/04/28 06:52:23;;;;;;;21.20;9.80;;;;;;;7.42;60.53;99689.73;105547;1257;108879;-73
2023/04/28 06:55:08;;;;;;;24.90;10.60;;;;;;;7.50;60.69;99691.52;105469;1254;100277;-77
2023/04/28 06:57:36;;;;;;;22.00;9.80;;;;;;;7.56;60.66;99688.88;105275;1257;107632;-72
2023/04/28 07:00:06;;;;;;;23.60;10.80;;;;;;;7.64;60.58;99686.71;105471;1250;97804;-74
2023/04/28 07:02:35;;;;;;;24.00;10.40;;;;;;;7.74;60.78;99687.64;105460;1254;97908;-73
2023/04/28 07:05:04;;;;;;;24.30;10.70;;;;;;;7.83;60.73;99687.02;105394;1254;109585;-73
2023/04/28 07:07:32;;;;;;;23.30;10.40;;;;;;;7.88;60.55;99687.47;105451;1256;100751;-72
2023/04/28 07:10:01;;;;;;;21.40;9.90;;;;;;;7.93;60.61;99686.33;105230;1254;107636;-76
2023/04/28 07:12:29;;;;;;;23.70;9.40;;;;;;;8.00;60.69;99685.61;105424;1254;96641;-73
2023/04/28 07:14:56;;;;;;;20.10;8.70;;;;;;;8.03;60.48;99682.42;105466;1256;97076;-73
2023/04/28 07:17:25;;;;;;;21.70;9.50;;;;;;;8.09;60.65;99680.70;105510;1254;110014;-73
2023/04/28 07:19:53;;;;;;;19.60;9.40;;;;;;;8.17;60.57;99678.52;105455;1256;100583;-73
2023/04/28 07:22:21;;;;;;;20.70;8.20;;;;;;;8.22;60.39;99679.33;105236;1254;107635;-72
2023/04/28 07:24:49;;;;;;;18.90;6.90;;;;;;;8.26;60.28;99679.48;105167;1257;97915;-73
2023/04/28 07:27:17;;;;;;;18.10;7.20;;;;;;;8.31;60.34;99683.27;105211;1257;97003;-73
2023/04/28 07:29:45;;;;;;;18.10;7.70;;;;;;;8.39;60.39;99674.55;105298;1256;110580;-77
2023/04/28 07:32:14;;;;;;;21.60;8.20;;;;;;;8.46;60.29;99677.02;105365;1255;100879;-74
2023/04/28 07:34:42;;;;;;;21.80;8.50;;;;;;;8.51;60.20;99676.24;105415;1256;108259;-75
2023/04/28 07:37:10;;;;;;;18.60;7.20;;;;;;;8.55;60.27;99677.79;105291;1257;96699;-78
2023/04/28 07:39:39;;;;;;;19.60;7.40;;;;;;;8.63;60.22;99672.21;105193;1263;97813;-72
2023/04/28 07:42:07;;;;;;;16.70;7.30;;;;;;;8.70;60.02;99677.68;105348;1254;109905;-72
2023/04/28 07:44:36;;;;;;;18.40;7.40;;;;;;;8.75;60.05;99669.98;105698;1256;100643;-73
2023/04/28 07:47:04;;;;;;;17.90;7.30;;;;;;;8.84;60.30;99664.89;105236;1254;106227;-73
2023/04/28 07:49:32;;;;;;;20.10;7.30;;;;;;;8.99;60.21;99666.52;105189;1256;97904;-69
2023/04/28 07:52:00;;;;;;;17.30;7.50;;;;;;;9.08;60.04;99664.60;105215;1254;97095;-73
2023/04/28 07:54:28;;;;;;;16.80;7.80;;;;;;;9.16;59.87;99667.20;105118;1251;109116;-73
2023/04/28 07:56:57;;;;;;;21.50;7.90;;;;;;;9.19;59.86;99665.20;105443;1254;100887;-72
2023/04/28 07:59:25;;;;;;;18.10;7.30;;;;;;;9.29;59.84;99662.55;105382;1254;202792;-73
2023/04/28 08:01:53;;;;;;;14.80;6.60;;;;;;;9.41;59.37;99665.04;105165;1257;97934;-73
2023/04/28 08:04:21;;;;;;;17.70;7.50;;;;;;;9.58;59.44;99657.31;105567;1256;97121;-75
2023/04/28 08:06:53;;;;;;;20.30;8.10;;;;;;;9.82;59.60;99659.05;105280;1257;109367;-73
2023/04/28 08:09:23;;;;;;;18.50;7.20;;;;;;;10.13;59.63;99650.98;105223;1251;101175;-73
2023/04/28 08:11:52;;;;;;;18.80;7.00;;;;;;;10.46;59.64;99649.55;105451;1254;107198;-74
2023/04/28 08:14:20;;;;;;;19.50;6.10;;;;;;;10.76;59.57;99651.40;105436;1255;96639;-74
2023/04/28 08:16:48;;;;;;;11.20;4.20;;;;;;;10.97;59.60;99643.98;105290;1251;96889;-77
2023/04/28 08:19:16;;;;;;;10.80;4.70;;;;;;;11.19;59.13;99643.78;105607;1251;109488;-75
2023/04/28 08:21:44;;;;;;;12.30;4.90;;;;;;;11.39;58.22;99647.81;105404;1254;100930;-74
2023/04/28 08:24:12;;;;;;;13.80;4.90;;;;;;;11.45;58.51;99641.72;105225;1253;107640;-75
2023/04/28 08:26:41;;;;;;;14.30;4.80;;;;;;;11.50;58.42;99645.73;105254;1251;97639;-73
2023/04/28 08:29:09;;;;;;;13.90;5.30;;;;;;;11.52;58.70;99639.89;105415;1253;97429;-74
2023/04/28 08:31:43;;;;;;;12.60;5.50;;;;;;;11.50;58.48;99640.04;105426;1254;109893;-81
2023/04/28 08:34:11;;;;;;;12.50;5.10;;;;;;;11.41;58.37;99639.54;105951;1253;100602;-80
2023/04/28 08:36:43;;;;;;;17.40;5.70;;;;;;;11.31;58.34;99632.74;105423;1254;107197;-78
2023/04/28 08:39:11;;;;;;;17.10;5.40;;;;;;;11.20;58.01;99633.65;105232;1252;97568;-81
2023/04/28 08:41:40;;;;;;;12.60;5.20;;;;;;;11.11;58.07;99632.48;105595;1254;96606;-77
2023/04/28 08:44:09;;;;;;;13.70;5.40;;;;;;;11.05;58.25;99631.06;105513;1253;111343;-81
2023/04/28 08:46:41;;;;;;;13.70;5.50;;;;;;;10.99;58.39;99627.41;105380;1257;101002;-79
2023/04/28 08:49:17;;;;;;;13.40;5.90;;;;;;;10.94;58.10;99625.59;105278;1267;107636;-79
2023/04/28 08:51:58;;;;;;;14.00;5.90;;;;;;;10.94;57.84;99623.27;108649;1253;94414;-78
2023/04/28 08:54:35;;;;;;;15.20;5.30;;;;;;;10.98;57.58;99620.17;105391;1253;96773;-76
2023/04/28 08:57:04;;;;;;;12.80;5.00;;;;;;;11.01;57.54;99615.31;105252;1256;109826;-79
2023/04/28 08:59:59;;;;;;;12.10;4.80;;;;;;;11.08;57.55;99614.21;106641;1253;100794;-82
2023/04/28 09:02:27;;;;;;;12.00;5.70;;;;;;;11.20;56.85;99616.55;104942;1254;109244;-76
2023/04/28 09:04:56;;;;;;;10.60;4.70;;;;;;;11.27;56.64;99613.48;105341;1256;96628;-81
2023/04/28 09:07:24;;;;;;;14.50;5.20;;;;;;;11.35;56.73;99611.00;105402;1254;96978;-80
2023/04/28 09:10:16;;;;;;;10.50;4.90;;;;;;;11.49;57.27;99608.62;105478;1253;109345;-80
2023/04/28 09:12:57;;;;;;;14.90;5.70;;;;;;;11.68;56.73;99609.83;107218;1253;100867;-86
2023/04/28 09:15:36;;;;;;;13.60;4.90;;;;;;;11.84;56.66;99609.09;106171;1256;108772;-83
2023/04/28 09:18:06;;;;;;;14.80;5.90;;;;;;;12.00;56.65;99606.94;107496;1257;96612;-84
2023/04/28 09:20:37;;;;;;;9.80;5.00;;;;;;;12.18;56.44;99603.90;105380;1257;97101;-79
2023/04/28 09:23:13;;;;;;;11.20;5.20;;;;;;;12.29;56.59;99599.95;105134;1253;109942;-77
2023/04/28 09:26:04;;;;;;;11.80;4.80;;;;;;;12.44;56.37;99600.32;106762;1253;99971;-77
2023/04/28 09:28:38;;;;;;;10.70;4.80;;;;;;;12.58;56.33;99595.25;105781;1259;107326;-75
2023/04/28 09:31:42;;;;;;;12.90;4.80;;;;;;;12.69;56.44;99594.25;105351;1256;96593;-80
2023/04/28 09:34:18;;;;;;;12.60;5.10;;;;;;;12.91;56.30;99588.05;105398;1260;97374;-74
2023/04/28 09:36:47;;;;;;;12.90;5.10;;;;;;;13.10;56.31;99588.36;108749;1253;110572;-77
2023/04/28 09:39:29;;;;;;;10.50;5.10;;;;;;;13.26;55.98;99587.18;105339;1257;101320;-75
2023/04/28 09:41:57;;;;;;;11.10;4.40;;;;;;;13.39;56.12;99583.54;105059;1260;106149;-74
2023/04/28 09:44:26;;;;;;;12.10;5.00;;;;;;;13.44;55.54;99580.92;105503;1255;96671;-73
2023/04/28 09:46:54;;;;;;;14.30;5.40;;;;;;;13.37;54.96;99581.17;105456;1256;97530;-70
2023/04/28 09:49:22;;;;;;;11.40;5.40;;;;;;;13.33;54.77;99583.97;105157;1254;109368;-67
2023/04/28 09:51:50;;;;;;;9.60;4.70;;;;;;;13.27;54.78;99580.50;105298;1256;100853;-72
2023/04/28 09:54:20;;;;;;;8.10;4.50;;;;;;;13.28;55.22;99579.05;105311;1254;106400;-70
2023/04/28 09:56:50;;;;;;;13.80;5.00;;;;;;;13.33;55.10;99581.52;105030;1257;96603;-71
2023/04/28 09:59:20;;;;;;;12.70;5.00;;;;;;;13.36;55.06;99579.66;105146;1256;96967;-81
2023/04/28 10:02:34;;;;;;;13.50;5.20;;;;;;;13.37;54.91;99577.80;105383;1257;109975;-81
2023/04/28 10:07:35;;;;;;;13.20;5.40;;;;;;;13.61;54.45;99567.15;102014;1294;649168;-78
